createdAt,value
2018-09-25T00:05:57.563Z,20.65
2018-09-25T00:16:05.963Z,20.64
2018-09-25T00:26:14.368Z,20.64
2018-09-25T00:36:22.763Z,20.65
2018-09-25T00:46:31.772Z,20.63
2018-09-25T00:56:40.556Z,20.63
2018-09-25T01:06:49.052Z,20.62
2018-09-25T01:16:58.397Z,20.61
2018-09-25T01:27:07.141Z,20.64
2018-09-25T01:37:16.587Z,20.60
2018-09-25T01:47:26.643Z,20.61
2018-09-25T01:57:37.223Z,20.64
2018-09-25T02:07:45.869Z,20.62
2018-09-25T02:17:55.241Z,20.60
2018-09-25T02:28:04.403Z,20.60
2018-09-25T02:38:12.898Z,20.54
2018-09-25T02:48:21.939Z,20.60
2018-09-25T02:58:30.798Z,20.59
2018-09-25T03:08:40.244Z,20.58
2018-09-25T03:18:50.233Z,20.56
2018-09-25T03:28:58.672Z,20.54
2018-09-25T03:39:07.533Z,20.53
2018-09-25T03:49:16.109Z,20.51
2018-09-25T03:59:24.540Z,20.52
2018-09-25T04:09:32.942Z,20.52
2018-09-25T04:19:42.033Z,20.50
2018-09-25T04:29:50.559Z,20.50
2018-09-25T04:39:59.097Z,20.49
2018-09-25T04:50:07.613Z,20.49
2018-09-25T05:00:17.033Z,20.47
2018-09-25T05:10:26.308Z,20.46
2018-09-25T05:20:35.025Z,20.45
2018-09-25T05:30:43.568Z,20.48
2018-09-25T05:40:52.492Z,20.51
2018-09-25T05:51:01.307Z,20.49
2018-09-25T06:01:09.669Z,20.45
2018-09-25T06:11:18.225Z,20.43
2018-09-25T06:21:26.897Z,20.46
2018-09-25T06:31:35.379Z,20.45
2018-09-25T06:41:43.953Z,20.45
2018-09-25T06:51:52.565Z,20.63
2018-09-25T07:02:01.151Z,20.61
2018-09-25T07:12:09.678Z,20.84
2018-09-25T07:22:17.997Z,20.84
2018-09-25T07:32:26.440Z,20.94
2018-09-25T07:42:34.831Z,21.16
2018-09-25T07:52:43.215Z,21.11
2018-09-25T08:02:51.882Z,21.19
2018-09-25T08:13:00.348Z,21.15
2018-09-25T08:23:09.038Z,21.24
2018-09-25T08:33:17.564Z,21.44
2018-09-25T08:43:26.092Z,21.13
2018-09-25T08:53:34.413Z,21.37
2018-09-25T09:03:43.184Z,21.61
2018-09-25T09:13:51.739Z,21.56
2018-09-25T09:24:00.104Z,21.61
2018-09-25T09:34:08.519Z,21.49
2018-09-25T09:44:17.194Z,21.53
2018-09-25T09:54:25.636Z,21.68
2018-09-25T10:04:34.125Z,21.12
2018-09-25T10:14:42.676Z,20.14
2018-09-25T10:24:51.120Z,19.66
2018-09-25T10:34:59.513Z,20.53
2018-09-25T10:45:08.180Z,20.14
2018-09-25T10:55:16.640Z,19.89
2018-09-25T11:05:24.945Z,19.95
2018-09-25T11:15:33.349Z,21.12
2018-09-25T11:25:42.976Z,21.33
2018-09-25T11:35:51.370Z,21.17
2018-09-25T11:45:59.852Z,20.07
2018-09-25T11:56:08.197Z,21.51
2018-09-25T12:06:16.636Z,21.85
2018-09-25T12:16:25.037Z,20.17
2018-09-25T12:26:33.496Z,19.93
2018-09-25T12:36:42.924Z,19.64
2018-09-25T12:46:51.510Z,20.38
2018-09-25T12:56:59.937Z,19.96
2018-09-25T13:07:08.420Z,19.96
2018-09-25T13:17:16.897Z,20.09
2018-09-25T13:27:25.244Z,20.15
2018-09-25T13:37:33.832Z,20.01
2018-09-25T13:47:42.148Z,20.14
2018-09-25T13:57:50.769Z,20.11
2018-09-25T14:07:59.168Z,19.93
2018-09-25T14:18:11.585Z,19.99
2018-09-25T14:28:19.994Z,20.18
2018-09-25T14:38:28.566Z,20.22
2018-09-25T14:48:37.076Z,20.27
2018-09-25T14:58:45.506Z,20.75
2018-09-25T15:08:54.171Z,20.37
2018-09-25T15:19:02.602Z,20.40
2018-09-25T15:29:11.132Z,21.18
2018-09-25T15:39:19.710Z,21.75
2018-09-25T15:49:28.042Z,21.83
2018-09-25T15:59:36.456Z,21.82
2018-09-25T16:09:44.748Z,20.64
2018-09-25T16:19:53.423Z,20.33
2018-09-25T16:30:01.963Z,20.31
2018-09-25T16:40:10.276Z,20.80
2018-09-25T16:50:18.620Z,20.78
2018-09-25T17:00:27.083Z,20.61
2018-09-25T17:10:35.724Z,20.57
2018-09-25T17:20:44.033Z,20.47
2018-09-25T17:30:52.436Z,20.27
2018-09-25T17:41:07.839Z,19.92
2018-09-25T17:51:16.207Z,19.78
2018-09-25T18:01:24.448Z,19.65
2018-09-25T18:11:32.814Z,19.67
2018-09-25T18:21:41.359Z,20.45
2018-09-25T18:31:49.759Z,21.10
2018-09-25T18:41:58.044Z,21.23
2018-09-25T18:52:06.503Z,20.96
2018-09-25T19:02:15.862Z,20.80
2018-09-25T19:12:24.508Z,19.19
2018-09-25T19:22:33.105Z,19.15
2018-09-25T19:32:41.509Z,19.01
2018-09-25T19:42:50.060Z,18.89
2018-09-25T19:52:58.706Z,18.80
2018-09-25T20:03:07.064Z,18.84
2018-09-25T20:13:15.530Z,18.82
2018-09-25T20:23:23.944Z,18.70
2018-09-25T20:33:32.512Z,19.53
2018-09-25T20:43:41.436Z,19.68
2018-09-25T20:53:50.093Z,19.80
2018-09-25T21:03:58.672Z,19.83
2018-09-25T21:14:07.455Z,19.85
2018-09-25T21:24:15.911Z,19.89
2018-09-25T21:34:24.321Z,19.92
2018-09-25T21:44:32.721Z,19.93
2018-09-25T21:54:41.344Z,19.96
2018-09-25T22:04:50.328Z,19.94
2018-09-25T22:14:59.500Z,19.96
2018-09-25T22:25:08.706Z,19.98
2018-09-25T22:35:18.094Z,19.96
2018-09-25T22:45:27.419Z,19.97
2018-09-25T22:55:39.000Z,19.96
2018-09-25T23:05:48.043Z,19.99
2018-09-25T23:15:57.108Z,19.99
2018-09-25T23:26:05.676Z,19.98
2018-09-25T23:36:15.069Z,19.99
2018-09-25T23:46:26.145Z,19.98
2018-09-25T23:56:34.724Z,19.96
